Terminal Aerodrome Forecast
Issued by NWS Quad Cities IA IL

Home | Current Version | Previous Version | Text Only | Print | Product List | Glossary On
Versions: 1 2 3 4 5 6 7 8 9 10 11 12
000
FTUS43 KDVN 111700
TAFDBQ
TAF
KDBQ 111737Z 1118/1218 16009KT P6SM VCSH SCT040 BKN100
     FM120400 16006KT P6SM VCTS SCT030CB BKN050
     FM120900 16005KT P6SM SCT035 BKN100=

USA.gov is the U.S. government's official web portal to all federal, state and local government web resources and services.